createdAt,value
2018-01-19T00:00:37.918Z,2.78
2018-01-19T00:03:06.050Z,3.58
2018-01-19T00:05:34.344Z,4.15
2018-01-19T00:08:02.397Z,3.83
2018-01-19T00:10:30.661Z,3.58
2018-01-19T00:12:58.395Z,4.10
2018-01-19T00:15:25.931Z,4.35
2018-01-19T00:17:53.393Z,4.75
2018-01-19T00:20:20.884Z,3.70
2018-01-19T00:22:48.397Z,4.30
2018-01-19T00:25:16.041Z,4.70
2018-01-19T00:27:44.578Z,4.43
2018-01-19T00:30:12.730Z,5.45
2018-01-19T00:32:40.382Z,5.00
2018-01-19T00:35:07.879Z,7.20
2018-01-19T00:37:36.072Z,5.30
2018-01-19T00:40:04.273Z,5.15
2018-01-19T00:42:32.549Z,5.87
2018-01-19T00:45:01.538Z,5.95
2018-01-19T00:47:29.785Z,5.30
2018-01-19T00:49:57.266Z,5.55
2018-01-19T00:52:25.802Z,5.50
2018-01-19T00:54:53.280Z,5.50
2018-01-19T00:57:21.151Z,5.60
2018-01-19T00:59:49.632Z,5.82
2018-01-19T01:02:18.539Z,5.65
2018-01-19T01:04:46.025Z,6.53
2018-01-19T01:07:14.171Z,5.45
2018-01-19T01:09:41.656Z,5.25
2018-01-19T01:12:09.128Z,5.25
2018-01-19T01:14:36.901Z,4.93
2018-01-19T01:17:04.433Z,4.85
2018-01-19T01:19:32.045Z,4.75
2018-01-19T01:21:59.534Z,5.10
2018-01-19T01:24:27.778Z,4.93
2018-01-19T01:26:55.471Z,4.15
2018-01-19T01:29:23.733Z,4.20
2018-01-19T01:31:51.385Z,4.32
2018-01-19T01:34:18.887Z,4.85
2018-01-19T01:36:48.565Z,4.75
2018-01-19T01:39:16.053Z,4.10
2018-01-19T01:41:44.341Z,3.75
2018-01-19T01:44:13.068Z,3.60
2018-01-19T01:46:41.369Z,3.00
2018-01-19T01:49:14.514Z,3.40
2018-01-19T01:51:42.295Z,3.70
2018-01-19T01:54:10.069Z,3.70
2018-01-19T01:56:37.577Z,4.00
2018-01-19T01:59:05.649Z,3.15
2018-01-19T02:01:33.329Z,3.12
2018-01-19T02:04:01.676Z,3.33
2018-01-19T02:06:29.973Z,3.87
2018-01-19T02:08:57.448Z,3.25
2018-01-19T02:11:24.955Z,4.00
2018-01-19T02:13:52.549Z,3.30
2018-01-19T02:16:20.042Z,3.37
2018-01-19T02:18:48.538Z,3.35
2018-01-19T02:21:16.054Z,3.28
2018-01-19T02:23:43.533Z,3.92
2018-01-19T02:26:11.028Z,4.03
2018-01-19T02:28:38.609Z,4.68
2018-01-19T02:31:06.087Z,5.32
2018-01-19T02:33:33.588Z,5.28
2018-01-19T02:36:01.085Z,6.30
2018-01-19T02:38:29.375Z,5.45
2018-01-19T02:40:57.041Z,5.97
2018-01-19T02:43:24.577Z,5.68
2018-01-19T02:45:52.058Z,5.10
2018-01-19T02:48:19.702Z,4.25
2018-01-19T02:50:47.959Z,4.32
2018-01-19T02:53:17.116Z,4.15
2018-01-19T02:55:44.757Z,4.53
2018-01-19T02:58:12.393Z,4.43
2018-01-19T03:00:39.894Z,6.03
2018-01-19T03:03:07.684Z,5.45
2018-01-19T03:05:35.185Z,5.97
2018-01-19T03:08:03.434Z,6.30
2018-01-19T03:10:30.925Z,4.78
2018-01-19T03:12:59.172Z,6.30
2018-01-19T03:15:26.645Z,6.25
2018-01-19T03:17:54.133Z,7.20
2018-01-19T03:20:21.947Z,6.68
2018-01-19T03:22:49.457Z,7.68
2018-01-19T03:25:17.910Z,9.80
2018-01-19T03:27:45.414Z,8.60
2018-01-19T03:30:12.894Z,9.80
2018-01-19T03:32:40.425Z,8.52
2018-01-19T03:35:08.013Z,9.35
2018-01-19T03:37:36.339Z,9.52
2018-01-19T03:40:03.877Z,9.40
2018-01-19T03:42:32.013Z,8.93
2018-01-19T03:45:00.278Z,8.38
2018-01-19T03:47:28.241Z,8.02
2018-01-19T03:49:55.781Z,8.63
2018-01-19T03:52:25.389Z,7.32
2018-01-19T03:54:54.230Z,5.72
2018-01-19T03:57:21.761Z,6.82
2018-01-19T03:59:49.262Z,7.68
2018-01-19T04:02:16.729Z,6.47
2018-01-19T04:04:44.672Z,5.47
2018-01-19T04:07:15.179Z,5.20
2018-01-19T04:09:42.724Z,4.40
2018-01-19T04:12:10.930Z,4.18
2018-01-19T04:14:39.263Z,4.43
2018-01-19T04:17:10.294Z,4.60
2018-01-19T04:19:38.589Z,4.70
2018-01-19T04:22:06.171Z,4.47
2018-01-19T04:24:34.005Z,4.00
2018-01-19T04:27:02.267Z,3.80
2018-01-19T04:29:29.746Z,3.92
2018-01-19T04:32:01.081Z,3.87
2018-01-19T04:34:29.661Z,3.20
2018-01-19T04:36:58.022Z,3.20
2018-01-19T04:39:25.495Z,2.62
2018-01-19T04:41:53.869Z,3.00
2018-01-19T04:44:21.397Z,2.72
2018-01-19T04:46:49.737Z,2.37
2018-01-19T04:49:17.226Z,3.37
2018-01-19T04:51:44.804Z,2.65
2018-01-19T04:54:12.278Z,2.40
2018-01-19T04:56:40.521Z,2.75
2018-01-19T04:59:08.007Z,3.08
2018-01-19T05:01:35.498Z,3.08
2018-01-19T05:04:03.758Z,3.00
2018-01-19T05:06:34.587Z,2.78
2018-01-19T05:09:02.223Z,2.70
2018-01-19T05:11:29.714Z,3.60
2018-01-19T05:13:59.561Z,2.65
2018-01-19T05:16:29.274Z,2.62
2018-01-19T05:18:56.748Z,2.47
2018-01-19T05:21:24.430Z,2.70
2018-01-19T05:23:52.286Z,2.20
2018-01-19T05:26:20.673Z,2.67
2018-01-19T05:28:49.510Z,2.70
2018-01-19T05:31:18.244Z,2.75
2018-01-19T05:33:46.542Z,2.60
2018-01-19T05:36:14.019Z,2.95
2018-01-19T05:38:41.490Z,2.42
2018-01-19T05:41:11.076Z,2.08
2018-01-19T05:43:40.052Z,2.60
2018-01-19T05:46:07.746Z,2.75
2018-01-19T05:48:36.042Z,3.08
2018-01-19T05:51:04.457Z,1.95
2018-01-19T05:53:32.140Z,2.78
2018-01-19T05:56:00.445Z,2.70
2018-01-19T05:58:27.983Z,2.53
2018-01-19T06:00:56.082Z,2.60
2018-01-19T06:03:25.078Z,2.45
2018-01-19T06:05:53.350Z,2.78
2018-01-19T06:08:21.269Z,2.87
2018-01-19T06:10:48.813Z,2.78
2018-01-19T06:13:16.520Z,2.83
2018-01-19T06:15:44.373Z,2.20
2018-01-19T06:18:11.866Z,4.18
2018-01-19T06:20:42.042Z,2.30
2018-01-19T06:23:10.223Z,2.58
2018-01-19T06:25:38.591Z,1.87
2018-01-19T06:28:06.131Z,2.28
2018-01-19T06:30:34.922Z,2.47
2018-01-19T06:33:04.158Z,2.67
2018-01-19T06:38:09.060Z,3.10
2018-01-19T06:40:36.961Z,2.95
2018-01-19T06:43:07.290Z,2.33
2018-01-19T06:45:35.156Z,2.60
2018-01-19T06:48:02.742Z,2.72
2018-01-19T06:50:30.473Z,3.65
2018-01-19T06:52:58.954Z,3.92
2018-01-19T06:55:26.437Z,3.65
2018-01-19T06:57:54.917Z,2.80
2018-01-19T07:00:22.521Z,2.87
2018-01-19T07:02:51.184Z,2.92
2018-01-19T07:05:20.199Z,2.55
2018-01-19T07:07:50.325Z,2.60
2018-01-19T07:10:17.871Z,2.67
2018-01-19T07:12:46.498Z,3.60
2018-01-19T07:15:14.093Z,2.50
2018-01-19T07:17:41.915Z,3.17
2018-01-19T07:20:09.534Z,2.60
2018-01-19T07:22:37.209Z,2.90
2018-01-19T07:25:04.996Z,3.37
2018-01-19T07:27:32.490Z,2.20
2018-01-19T07:30:00.963Z,3.20
2018-01-19T07:32:29.964Z,2.80
2018-01-19T07:34:57.481Z,2.80
2018-01-19T07:37:26.504Z,2.92
2018-01-19T07:39:55.664Z,2.85
2018-01-19T07:42:23.280Z,2.92
2018-01-19T07:44:50.922Z,2.65
2018-01-19T07:47:18.658Z,2.85
2018-01-19T07:49:46.362Z,3.78
2018-01-19T07:52:14.731Z,4.20
2018-01-19T07:54:43.840Z,3.25
2018-01-19T07:57:12.505Z,2.78
2018-01-19T07:59:40.929Z,3.15
2018-01-19T08:02:09.373Z,3.37
2018-01-19T08:04:36.854Z,2.90
2018-01-19T08:07:08.014Z,3.15
2018-01-19T08:09:35.605Z,3.35
2018-01-19T08:12:03.921Z,3.25
2018-01-19T08:14:32.107Z,3.35
2018-01-19T08:16:59.585Z,3.15
2018-01-19T08:19:27.062Z,2.85
2018-01-19T08:21:55.955Z,2.70
2018-01-19T08:24:24.203Z,3.08
2018-01-19T08:26:52.651Z,2.78
2018-01-19T08:29:20.154Z,3.20
2018-01-19T08:31:47.671Z,3.65
2018-01-19T08:34:15.441Z,4.07
2018-01-19T08:36:43.236Z,3.10
2018-01-19T08:39:10.918Z,2.90
2018-01-19T08:41:38.423Z,3.12
2018-01-19T08:44:06.959Z,4.35
2018-01-19T08:46:34.928Z,2.80
2018-01-19T08:49:04.495Z,3.10
2018-01-19T08:51:32.104Z,3.00
2018-01-19T08:54:00.018Z,2.30
2018-01-19T08:56:28.588Z,2.75
2018-01-19T08:58:56.561Z,3.10
2018-01-19T09:01:24.743Z,2.83
2018-01-19T09:03:52.320Z,3.08
2018-01-19T09:06:19.858Z,2.85
2018-01-19T09:08:48.422Z,4.15
2018-01-19T09:11:16.980Z,4.53
2018-01-19T09:13:46.437Z,3.78
2018-01-19T09:16:15.532Z,3.65
2018-01-19T09:18:43.904Z,3.15
2018-01-19T09:21:12.615Z,3.58
2018-01-19T09:23:40.305Z,3.70
2018-01-19T09:26:07.996Z,2.92
2018-01-19T09:28:35.695Z,3.08
2018-01-19T09:31:03.776Z,3.40
2018-01-19T09:33:31.722Z,3.03
2018-01-19T09:35:59.597Z,3.35
2018-01-19T09:38:27.283Z,3.78
2018-01-19T09:40:55.786Z,3.50
2018-01-19T09:43:23.802Z,4.35
2018-01-19T09:45:53.426Z,3.25
2018-01-19T09:48:21.002Z,3.58
2018-01-19T09:50:48.574Z,3.97
2018-01-19T09:53:16.867Z,3.40
2018-01-19T09:55:46.036Z,3.62
2018-01-19T09:58:15.456Z,3.50
2018-01-19T10:00:43.006Z,3.35
2018-01-19T10:03:10.630Z,3.92
2018-01-19T10:05:38.761Z,3.95
2018-01-19T10:08:07.891Z,4.12
2018-01-19T10:10:36.344Z,4.93
2018-01-19T10:13:05.176Z,3.20
2018-01-19T10:15:33.548Z,3.78
2018-01-19T10:18:01.122Z,3.47
2018-01-19T10:20:28.810Z,3.60
2018-01-19T10:22:56.354Z,4.05
2018-01-19T10:25:24.135Z,3.87
2018-01-19T10:27:52.745Z,3.25
2018-01-19T10:30:21.633Z,3.85
2018-01-19T10:32:50.220Z,4.32
2018-01-19T10:35:17.776Z,3.30
2018-01-19T10:37:45.482Z,3.78
2018-01-19T10:40:13.938Z,4.18
2018-01-19T10:42:41.529Z,4.28
2018-01-19T10:45:10.174Z,4.70
2018-01-19T10:47:38.440Z,4.60
2018-01-19T10:50:06.710Z,3.60
2018-01-19T10:52:34.387Z,4.03
2018-01-19T10:55:04.936Z,3.10
2018-01-19T10:57:33.371Z,4.53
2018-01-19T11:00:00.930Z,4.30
2018-01-19T11:02:28.842Z,3.43
2018-01-19T11:04:56.825Z,3.50
2018-01-19T11:07:24.428Z,3.33
2018-01-19T11:09:52.829Z,2.87
2018-01-19T11:12:20.741Z,4.12
2018-01-19T11:14:48.461Z,3.40
2018-01-19T11:17:16.990Z,4.45
2018-01-19T11:19:45.381Z,3.62
2018-01-19T11:22:12.943Z,3.75
2018-01-19T11:24:41.185Z,4.10
2018-01-19T11:27:08.860Z,4.00
2018-01-19T11:29:37.366Z,4.35
2018-01-19T11:32:06.039Z,3.15
2018-01-19T11:34:33.622Z,4.72
2018-01-19T11:37:02.043Z,4.07
2018-01-19T11:39:29.751Z,3.50
2018-01-19T11:41:58.188Z,4.70
2018-01-19T11:44:25.678Z,4.12
2018-01-19T11:46:53.377Z,3.12
2018-01-19T11:49:21.034Z,4.07
2018-01-19T11:51:50.738Z,3.58
2018-01-19T11:54:18.305Z,3.33
2018-01-19T11:56:47.051Z,3.30
2018-01-19T11:59:14.622Z,4.50
2018-01-19T12:01:42.641Z,2.40
2018-01-19T12:04:13.154Z,2.65
2018-01-19T12:06:41.548Z,2.60
2018-01-19T12:09:09.844Z,2.70
2018-01-19T12:11:41.637Z,3.70
2018-01-19T12:14:09.824Z,2.70
2018-01-19T12:16:37.405Z,2.80
2018-01-19T12:19:04.993Z,2.20
2018-01-19T12:21:32.746Z,2.47
2018-01-19T12:24:01.883Z,2.97
2018-01-19T12:26:29.547Z,3.40
2018-01-19T12:28:57.708Z,2.55
2018-01-19T12:31:25.464Z,2.70
2018-01-19T12:33:52.986Z,2.35
2018-01-19T12:36:24.781Z,2.35
2018-01-19T12:38:53.969Z,2.53
2018-01-19T12:41:21.581Z,3.90
2018-01-19T12:43:49.152Z,2.90
2018-01-19T12:46:16.725Z,2.90
2018-01-19T12:48:45.093Z,2.50
2018-01-19T12:51:14.085Z,3.87
2018-01-19T12:53:43.648Z,2.53
2018-01-19T12:56:13.388Z,3.12
2018-01-19T12:58:42.309Z,2.75
2018-01-19T13:01:11.493Z,3.28
2018-01-19T13:03:39.106Z,3.28
2018-01-19T13:06:06.610Z,2.70
2018-01-19T13:08:34.183Z,2.58
2018-01-19T13:11:01.805Z,2.97
2018-01-19T13:13:29.333Z,3.37
2018-01-19T13:15:57.821Z,4.05
2018-01-19T13:18:26.346Z,4.85
2018-01-19T13:20:54.002Z,3.17
2018-01-19T13:23:21.587Z,3.70
2018-01-19T13:25:49.962Z,4.18
2018-01-19T13:28:18.494Z,3.80
2018-01-19T13:30:47.206Z,3.28
2018-01-19T13:33:14.701Z,3.53
2018-01-19T13:35:42.298Z,2.90
2018-01-19T13:38:10.246Z,3.08
2018-01-19T13:40:38.882Z,3.35
2018-01-19T13:43:06.575Z,3.15
2018-01-19T13:45:34.122Z,3.22
2018-01-19T13:48:01.684Z,3.62
2018-01-19T13:50:29.322Z,3.05
2018-01-19T13:52:56.798Z,4.40
2018-01-19T13:55:24.417Z,2.78
2018-01-19T13:57:51.917Z,3.00
2018-01-19T14:00:20.570Z,3.03
2018-01-19T14:02:48.387Z,2.85
2018-01-19T14:05:16.751Z,3.80
2018-01-19T14:07:46.239Z,2.75
2018-01-19T14:10:15.230Z,3.10
2018-01-19T14:12:44.040Z,3.42
2018-01-19T14:15:12.394Z,3.70
2018-01-19T14:17:40.811Z,4.28
2018-01-19T14:20:08.338Z,3.20
2018-01-19T14:22:35.889Z,3.12
2018-01-19T14:25:03.576Z,3.80
2018-01-19T14:27:31.846Z,3.20
2018-01-19T14:29:59.357Z,3.30
2018-01-19T14:32:27.481Z,3.10
2018-01-19T14:34:55.075Z,3.30
2018-01-19T14:37:22.623Z,2.87
2018-01-19T14:39:50.158Z,2.70
2018-01-19T14:42:17.733Z,2.20
2018-01-19T14:44:46.145Z,3.35
2018-01-19T14:47:14.668Z,3.22
2018-01-19T14:49:42.193Z,3.20
2018-01-19T14:52:10.934Z,3.25
2018-01-19T14:54:38.430Z,2.80
2018-01-19T14:57:05.906Z,3.40
2018-01-19T14:59:33.633Z,2.87
2018-01-19T15:02:01.238Z,2.50
2018-01-19T15:04:28.812Z,3.35
2018-01-19T15:06:56.314Z,2.50
2018-01-19T15:09:23.798Z,2.78
2018-01-19T15:11:51.554Z,5.68
2018-01-19T15:14:19.869Z,2.60
2018-01-19T15:16:47.362Z,2.70
2018-01-19T15:19:14.845Z,2.90
2018-01-19T15:21:42.582Z,2.62
2018-01-19T15:24:10.086Z,2.30
2018-01-19T15:26:37.608Z,3.00
2018-01-19T15:29:07.214Z,3.40
2018-01-19T15:31:35.250Z,3.10
2018-01-19T15:34:03.569Z,2.72
2018-01-19T15:36:31.142Z,2.92
2018-01-19T15:38:58.674Z,2.53
2018-01-19T15:41:26.233Z,3.17
2018-01-19T15:43:53.815Z,3.20
2018-01-19T15:46:22.115Z,3.90
2018-01-19T15:48:49.676Z,3.33
2018-01-19T15:51:17.210Z,3.92
2018-01-19T15:53:44.844Z,2.87
2018-01-19T15:56:13.102Z,3.30
2018-01-19T15:58:40.767Z,4.00
2018-01-19T16:01:09.023Z,3.70
2018-01-19T16:03:36.505Z,4.37
2018-01-19T16:06:04.857Z,4.37
2018-01-19T16:08:32.544Z,2.90
2018-01-19T16:11:00.305Z,3.30
2018-01-19T16:13:27.846Z,3.37
2018-01-19T16:15:55.378Z,2.45
2018-01-19T16:18:22.874Z,2.40
2018-01-19T16:20:50.412Z,2.72
2018-01-19T16:23:17.915Z,3.00
2018-01-19T16:25:45.433Z,2.53
2018-01-19T16:28:13.205Z,2.67
2018-01-19T16:33:14.681Z,2.25
2018-01-19T16:35:42.214Z,2.70
2018-01-19T16:38:09.705Z,3.80
2018-01-19T16:40:37.210Z,3.30
2018-01-19T16:43:05.530Z,3.50
2018-01-19T16:45:33.009Z,2.90
2018-01-19T16:48:01.353Z,3.17
2018-01-19T16:50:28.826Z,3.40
2018-01-19T16:52:56.376Z,3.35
2018-01-19T16:55:24.755Z,2.53
2018-01-19T16:57:52.293Z,3.62
2018-01-19T17:00:20.486Z,3.30
2018-01-19T17:02:48.211Z,3.70
2018-01-19T17:05:15.838Z,5.10
2018-01-19T17:07:45.247Z,2.70
2018-01-19T17:10:23.386Z,2.83
2018-01-19T17:12:52.093Z,3.25
2018-01-19T17:15:24.870Z,4.03
2018-01-19T17:17:55.320Z,3.40
2018-01-19T17:20:22.988Z,4.12
2018-01-19T17:22:52.077Z,3.75
2018-01-19T17:25:19.645Z,3.50
2018-01-19T17:27:48.306Z,4.43
2018-01-19T17:30:15.871Z,4.43
2018-01-19T17:32:44.086Z,2.62
2018-01-19T17:35:12.328Z,3.40
2018-01-19T17:37:39.826Z,3.60
2018-01-19T17:40:11.183Z,4.75
2018-01-19T17:42:39.510Z,4.40
2018-01-19T17:45:07.258Z,4.37
2018-01-19T17:47:35.018Z,3.65
2018-01-19T17:50:02.500Z,4.32
2018-01-19T17:52:29.978Z,4.00
2018-01-19T17:54:58.272Z,4.07
2018-01-19T17:57:26.514Z,4.00
2018-01-19T17:59:54.106Z,4.70
2018-01-19T18:02:22.447Z,4.10
2018-01-19T18:04:50.048Z,5.40
2018-01-19T18:07:17.565Z,4.10
2018-01-19T18:09:45.296Z,4.60
2018-01-19T18:12:12.774Z,5.53
2018-01-19T18:14:41.868Z,4.90
2018-01-19T18:17:09.381Z,4.47
2018-01-19T18:19:37.722Z,4.60
2018-01-19T18:22:05.230Z,4.87
2018-01-19T18:24:32.790Z,5.10
2018-01-19T18:27:05.184Z,4.35
2018-01-19T18:29:33.227Z,5.12
2018-01-19T18:32:01.227Z,5.20
2018-01-19T18:34:30.833Z,5.85
2018-01-19T18:37:02.257Z,6.20
2018-01-19T18:39:29.886Z,5.45
2018-01-19T18:41:58.158Z,5.75
2018-01-19T18:44:25.670Z,5.75
2018-01-19T18:46:53.252Z,5.10
2018-01-19T18:49:21.645Z,6.28
2018-01-19T18:51:51.140Z,4.70
2018-01-19T18:54:18.638Z,5.00
2018-01-19T18:56:46.891Z,4.93
2018-01-19T18:59:15.377Z,6.07
2018-01-19T19:01:43.790Z,4.05
2018-01-19T19:04:11.286Z,4.43
2018-01-19T19:06:38.994Z,4.03
2018-01-19T19:09:07.353Z,4.70
2018-01-19T19:11:36.439Z,4.75
2018-01-19T19:14:04.031Z,4.12
2018-01-19T19:16:32.270Z,5.07
2018-01-19T19:18:59.910Z,4.85
2018-01-19T19:21:27.433Z,3.67
2018-01-19T19:23:54.909Z,4.37
2018-01-19T19:26:22.394Z,3.70
2018-01-19T19:28:49.890Z,3.97
2018-01-19T19:31:18.145Z,5.07
2018-01-19T19:33:46.414Z,4.85
2018-01-19T19:36:14.010Z,3.70
2018-01-19T19:38:41.635Z,4.03
2018-01-19T19:41:09.933Z,3.60
2018-01-19T19:43:38.954Z,4.40
2018-01-19T19:46:06.662Z,5.37
2018-01-19T19:48:34.155Z,4.62
2018-01-19T19:51:04.312Z,4.25
2018-01-19T19:59:30.302Z,5.20
2018-01-19T20:01:57.790Z,4.72
2018-01-19T20:04:25.311Z,5.45
2018-01-19T20:06:53.588Z,4.75
2018-01-19T20:09:21.086Z,7.32
2018-01-19T20:11:48.731Z,5.60
2018-01-19T20:14:16.275Z,5.45
2018-01-19T20:16:44.765Z,4.82
2018-01-19T20:19:12.331Z,5.55
2018-01-19T20:21:39.914Z,5.55
2018-01-19T20:24:07.453Z,5.72
2018-01-19T20:26:35.134Z,5.10
2018-01-19T20:29:02.731Z,5.20
2018-01-19T20:31:30.300Z,5.95
2018-01-19T20:33:57.833Z,5.65
2018-01-19T20:36:25.315Z,5.40
2018-01-19T20:38:52.813Z,4.20
2018-01-19T20:41:20.369Z,5.50
2018-01-19T20:43:47.849Z,5.15
2018-01-19T20:46:15.345Z,4.97
2018-01-19T20:48:42.841Z,4.53
2018-01-19T20:51:10.416Z,5.65
2018-01-19T20:53:37.950Z,5.12
2018-01-19T20:56:05.429Z,6.05
2018-01-19T20:58:32.906Z,5.10
2018-01-19T21:01:00.430Z,5.37
2018-01-19T21:03:28.024Z,4.70
2018-01-19T21:05:55.565Z,4.93
2018-01-19T21:08:23.062Z,4.78
2018-01-19T21:10:50.670Z,4.65
2018-01-19T21:13:18.218Z,3.50
2018-01-19T21:15:46.493Z,4.72
2018-01-19T21:18:14.737Z,3.65
2018-01-19T21:20:42.218Z,4.10
2018-01-19T21:23:09.734Z,4.15
2018-01-19T21:25:37.213Z,3.78
2018-01-19T21:28:04.813Z,3.90
2018-01-19T21:30:32.385Z,4.03
2018-01-19T21:32:59.882Z,5.15
2018-01-19T21:35:27.369Z,3.17
2018-01-19T21:37:55.150Z,3.40
2018-01-19T21:40:22.802Z,3.75
2018-01-19T21:42:50.309Z,4.20
2018-01-19T21:45:17.829Z,3.65
2018-01-19T21:47:46.065Z,3.50
2018-01-19T21:50:13.587Z,3.60
2018-01-19T21:52:42.013Z,3.40
2018-01-19T21:55:09.497Z,3.50
2018-01-19T21:57:37.742Z,4.10
2018-01-19T22:00:05.245Z,3.50
2018-01-19T22:02:32.721Z,3.58
2018-01-19T22:05:00.209Z,3.05
2018-01-19T22:07:27.923Z,3.45
2018-01-19T22:09:55.444Z,2.90
2018-01-19T22:12:22.942Z,2.67
2018-01-19T22:14:50.442Z,3.42
2018-01-19T22:17:17.942Z,2.95
2018-01-19T22:19:45.581Z,3.45
2018-01-19T22:22:13.123Z,3.10
2018-01-19T22:24:40.703Z,4.32
2018-01-19T22:27:08.225Z,4.50
2018-01-19T22:29:35.886Z,3.08
2018-01-19T22:32:03.425Z,3.50
2018-01-19T22:34:30.909Z,4.10
2018-01-19T22:36:58.464Z,4.10
2018-01-19T22:39:25.958Z,3.95
2018-01-19T22:41:53.463Z,4.65
2018-01-19T22:44:22.012Z,5.18
2018-01-19T22:46:49.704Z,4.62
2018-01-19T22:49:17.222Z,4.90
2018-01-19T22:51:44.735Z,4.47
2018-01-19T22:54:12.238Z,5.78
2018-01-19T22:56:39.721Z,5.00
2018-01-19T22:59:07.998Z,5.40
2018-01-19T23:01:36.237Z,5.68
2018-01-19T23:04:03.802Z,4.57
2018-01-19T23:06:31.301Z,4.50
2018-01-19T23:08:59.706Z,4.25
2018-01-19T23:11:27.238Z,4.15
2018-01-19T23:13:55.526Z,5.35
2018-01-19T23:16:23.098Z,4.30
2018-01-19T23:18:50.586Z,4.60
2018-01-19T23:21:18.138Z,4.78
2018-01-19T23:23:45.614Z,4.47
2018-01-19T23:26:13.103Z,5.35
2018-01-19T23:28:41.451Z,4.43
2018-01-19T23:31:08.933Z,5.07
2018-01-19T23:33:36.418Z,3.87
2018-01-19T23:36:03.934Z,4.50
2018-01-19T23:38:31.425Z,4.62
2018-01-19T23:40:59.769Z,5.20
2018-01-19T23:43:28.938Z,3.87
2018-01-19T23:45:56.441Z,3.87
2018-01-19T23:48:24.412Z,3.05
2018-01-19T23:50:52.769Z,4.57
2018-01-19T23:53:20.371Z,4.60
2018-01-19T23:55:47.985Z,4.07
2018-01-19T23:58:15.653Z,4.95
